sensor_id;sensor_type;location;lat;lon;timestamp;P1;durP1;ratioP1;P2;durP2;ratioP2
66118;SDS011;52912;48.564;9.302;2023-05-19T00:01:35;5.57;;;2.63;;
66118;SDS011;52912;48.564;9.302;2023-05-19T00:04:01;7.03;;;3.00;;
66118;SDS011;52912;48.564;9.302;2023-05-19T00:06:28;11.95;;;3.10;;
66118;SDS011;52912;48.564;9.302;2023-05-19T00:08:57;12.75;;;3.33;;
66118;SDS011;52912;48.564;9.302;2023-05-19T00:11:23;11.52;;;3.35;;
66118;SDS011;52912;48.564;9.302;2023-05-19T00:13:50;6.82;;;2.90;;
66118;SDS011;52912;48.564;9.302;2023-05-19T00:16:17;7.40;;;3.03;;
66118;SDS011;52912;48.564;9.302;2023-05-19T00:18:43;8.93;;;2.78;;
66118;SDS011;52912;48.564;9.302;2023-05-19T00:21:08;6.78;;;3.03;;
66118;SDS011;52912;48.564;9.302;2023-05-19T00:23:34;11.50;;;3.45;;
66118;SDS011;52912;48.564;9.302;2023-05-19T00:25:59;7.60;;;2.70;;
66118;SDS011;52912;48.564;9.302;2023-05-19T00:28:24;5.75;;;3.10;;
66118;SDS011;52912;48.564;9.302;2023-05-19T00:30:51;10.18;;;2.83;;
66118;SDS011;52912;48.564;9.302;2023-05-19T00:33:23;9.25;;;2.92;;
66118;SDS011;52912;48.564;9.302;2023-05-19T00:35:48;9.40;;;3.00;;
66118;SDS011;52912;48.564;9.302;2023-05-19T00:38:13;7.95;;;2.58;;
66118;SDS011;52912;48.564;9.302;2023-05-19T00:40:39;7.60;;;2.70;;
66118;SDS011;52912;48.564;9.302;2023-05-19T00:43:04;9.68;;;2.92;;
66118;SDS011;52912;48.564;9.302;2023-05-19T00:45:30;8.68;;;2.90;;
66118;SDS011;52912;48.564;9.302;2023-05-19T00:47:57;7.35;;;3.00;;
66118;SDS011;52912;48.564;9.302;2023-05-19T00:50:22;7.97;;;2.90;;
66118;SDS011;52912;48.564;9.302;2023-05-19T00:52:48;10.30;;;2.50;;
66118;SDS011;52912;48.564;9.302;2023-05-19T00:55:13;8.93;;;2.83;;
66118;SDS011;52912;48.564;9.302;2023-05-19T00:57:39;8.98;;;2.58;;
66118;SDS011;52912;48.564;9.302;2023-05-19T01:00:06;6.68;;;2.65;;
66118;SDS011;52912;48.564;9.302;2023-05-19T01:02:33;6.53;;;2.65;;
66118;SDS011;52912;48.564;9.302;2023-05-19T01:05:00;4.93;;;2.60;;
66118;SDS011;52912;48.564;9.302;2023-05-19T01:07:26;6.15;;;2.80;;
66118;SDS011;52912;48.564;9.302;2023-05-19T01:09:52;6.78;;;2.60;;
66118;SDS011;52912;48.564;9.302;2023-05-19T01:12:17;7.88;;;2.60;;
66118;SDS011;52912;48.564;9.302;2023-05-19T01:14:43;5.97;;;2.67;;
66118;SDS011;52912;48.564;9.302;2023-05-19T01:17:11;6.63;;;2.45;;
66118;SDS011;52912;48.564;9.302;2023-05-19T01:19:46;5.45;;;2.65;;
66118;SDS011;52912;48.564;9.302;2023-05-19T01:31:00;6.47;;;2.67;;
66118;SDS011;52912;48.564;9.302;2023-05-19T01:33:26;7.53;;;2.80;;
66118;SDS011;52912;48.564;9.302;2023-05-19T01:35:53;5.47;;;2.55;;
66118;SDS011;52912;48.564;9.302;2023-05-19T01:38:20;4.05;;;2.42;;
66118;SDS011;52912;48.564;9.302;2023-05-19T01:40:46;7.68;;;2.60;;
66118;SDS011;52912;48.564;9.302;2023-05-19T01:43:14;8.75;;;2.60;;
66118;SDS011;52912;48.564;9.302;2023-05-19T01:45:42;5.35;;;2.80;;
66118;SDS011;52912;48.564;9.302;2023-05-19T01:48:09;6.32;;;2.63;;
66118;SDS011;52912;48.564;9.302;2023-05-19T01:50:35;7.22;;;2.75;;
66118;SDS011;52912;48.564;9.302;2023-05-19T01:53:01;6.97;;;3.10;;
66118;SDS011;52912;48.564;9.302;2023-05-19T01:55:26;6.95;;;2.72;;
66118;SDS011;52912;48.564;9.302;2023-05-19T01:57:54;4.40;;;2.63;;
66118;SDS011;52912;48.564;9.302;2023-05-19T02:00:34;5.30;;;2.70;;
66118;SDS011;52912;48.564;9.302;2023-05-19T02:03:08;4.95;;;2.72;;
66118;SDS011;52912;48.564;9.302;2023-05-19T02:05:48;7.75;;;2.80;;
66118;SDS011;52912;48.564;9.302;2023-05-19T02:08:19;5.43;;;2.55;;
66118;SDS011;52912;48.564;9.302;2023-05-19T02:10:53;8.63;;;3.08;;
66118;SDS011;52912;48.564;9.302;2023-05-19T02:13:22;6.88;;;2.65;;
66118;SDS011;52912;48.564;9.302;2023-05-19T02:15:49;7.25;;;2.72;;
66118;SDS011;52912;48.564;9.302;2023-05-19T02:18:19;4.50;;;2.55;;
66118;SDS011;52912;48.564;9.302;2023-05-19T02:20:45;8.98;;;2.90;;
66118;SDS011;52912;48.564;9.302;2023-05-19T02:23:10;6.72;;;2.83;;
66118;SDS011;52912;48.564;9.302;2023-05-19T02:25:36;5.35;;;2.95;;
66118;SDS011;52912;48.564;9.302;2023-05-19T02:28:01;4.40;;;2.60;;
66118;SDS011;52912;48.564;9.302;2023-05-19T02:30:27;5.15;;;3.22;;
66118;SDS011;52912;48.564;9.302;2023-05-19T02:32:52;5.63;;;2.70;;
66118;SDS011;52912;48.564;9.302;2023-05-19T02:35:19;5.35;;;2.90;;
66118;SDS011;52912;48.564;9.302;2023-05-19T02:37:44;6.40;;;2.65;;
66118;SDS011;52912;48.564;9.302;2023-05-19T02:40:10;7.45;;;2.60;;
66118;SDS011;52912;48.564;9.302;2023-05-19T02:42:36;7.75;;;2.92;;
66118;SDS011;52912;48.564;9.302;2023-05-19T02:45:01;6.47;;;3.22;;
66118;SDS011;52912;48.564;9.302;2023-05-19T02:47:27;5.95;;;2.70;;
66118;SDS011;52912;48.564;9.302;2023-05-19T02:49:52;5.75;;;2.45;;
66118;SDS011;52912;48.564;9.302;2023-05-19T02:52:19;6.57;;;2.80;;
66118;SDS011;52912;48.564;9.302;2023-05-19T02:54:44;5.88;;;2.70;;
66118;SDS011;52912;48.564;9.302;2023-05-19T02:57:10;6.93;;;2.90;;
66118;SDS011;52912;48.564;9.302;2023-05-19T02:59:35;5.18;;;2.47;;
66118;SDS011;52912;48.564;9.302;2023-05-19T03:02:01;5.45;;;2.80;;
66118;SDS011;52912;48.564;9.302;2023-05-19T03:04:26;6.70;;;3.08;;
66118;SDS011;52912;48.564;9.302;2023-05-19T03:06:52;5.70;;;2.80;;
66118;SDS011;52912;48.564;9.302;2023-05-19T03:09:19;6.68;;;2.42;;
66118;SDS011;52912;48.564;9.302;2023-05-19T03:11:44;4.60;;;2.72;;
66118;SDS011;52912;48.564;9.302;2023-05-19T03:14:10;6.28;;;3.10;;
66118;SDS011;52912;48.564;9.302;2023-05-19T03:16:35;5.28;;;2.90;;
66118;SDS011;52912;48.564;9.302;2023-05-19T03:19:01;7.75;;;2.80;;
66118;SDS011;52912;48.564;9.302;2023-05-19T03:21:26;5.03;;;2.63;;
66118;SDS011;52912;48.564;9.302;2023-05-19T03:23:52;6.30;;;2.63;;
66118;SDS011;52912;48.564;9.302;2023-05-19T03:26:19;6.43;;;2.78;;
66118;SDS011;52912;48.564;9.302;2023-05-19T03:28:44;5.28;;;2.65;;
66118;SDS011;52912;48.564;9.302;2023-05-19T03:31:10;6.70;;;2.92;;
66118;SDS011;52912;48.564;9.302;2023-05-19T03:33:35;8.02;;;3.03;;
66118;SDS011;52912;48.564;9.302;2023-05-19T03:36:00;6.20;;;2.70;;
66118;SDS011;52912;48.564;9.302;2023-05-19T03:38:26;5.75;;;2.90;;
66118;SDS011;52912;48.564;9.302;2023-05-19T03:40:52;5.05;;;2.80;;
66118;SDS011;52912;48.564;9.302;2023-05-19T03:43:18;6.78;;;3.20;;
66118;SDS011;52912;48.564;9.302;2023-05-19T03:45:44;6.93;;;3.10;;
66118;SDS011;52912;48.564;9.302;2023-05-19T03:48:09;6.28;;;3.03;;
66118;SDS011;52912;48.564;9.302;2023-05-19T03:50:35;7.85;;;3.03;;
66118;SDS011;52912;48.564;9.302;2023-05-19T03:53:00;7.05;;;3.35;;
66118;SDS011;52912;48.564;9.302;2023-05-19T03:55:26;6.82;;;3.17;;
66118;SDS011;52912;48.564;9.302;2023-05-19T03:57:51;7.18;;;2.78;;
66118;SDS011;52912;48.564;9.302;2023-05-19T04:00:18;8.02;;;3.17;;
66118;SDS011;52912;48.564;9.302;2023-05-19T04:02:43;5.80;;;2.88;;
66118;SDS011;52912;48.564;9.302;2023-05-19T04:05:09;8.57;;;3.40;;
66118;SDS011;52912;48.564;9.302;2023-05-19T04:07:34;6.85;;;3.08;;
66118;SDS011;52912;48.564;9.302;2023-05-19T04:10:00;8.43;;;3.60;;
66118;SDS011;52912;48.564;9.302;2023-05-19T04:12:27;10.18;;;3.40;;
66118;SDS011;52912;48.564;9.302;2023-05-19T04:14:52;5.90;;;2.85;;
66118;SDS011;52912;48.564;9.302;2023-05-19T04:17:19;6.78;;;3.08;;
66118;SDS011;52912;48.564;9.302;2023-05-19T04:19:45;8.18;;;3.10;;
66118;SDS011;52912;48.564;9.302;2023-05-19T04:22:10;5.45;;;3.00;;
66118;SDS011;52912;48.564;9.302;2023-05-19T04:24:35;5.97;;;2.97;;
66118;SDS011;52912;48.564;9.302;2023-05-19T04:27:01;8.43;;;3.45;;
66118;SDS011;52912;48.564;9.302;2023-05-19T04:29:26;6.60;;;3.25;;
66118;SDS011;52912;48.564;9.302;2023-05-19T04:31:52;7.22;;;2.92;;
66118;SDS011;52912;48.564;9.302;2023-05-19T04:34:19;15.20;;;3.67;;
66118;SDS011;52912;48.564;9.302;2023-05-19T04:36:45;10.05;;;3.20;;
66118;SDS011;52912;48.564;9.302;2023-05-19T04:39:11;7.53;;;3.20;;
66118;SDS011;52912;48.564;9.302;2023-05-19T04:41:36;8.05;;;3.97;;
66118;SDS011;52912;48.564;9.302;2023-05-19T04:44:01;9.32;;;3.25;;
66118;SDS011;52912;48.564;9.302;2023-05-19T04:46:27;10.57;;;3.88;;
66118;SDS011;52912;48.564;9.302;2023-05-19T04:48:52;8.98;;;3.30;;
66118;SDS011;52912;48.564;9.302;2023-05-19T04:51:19;9.25;;;3.13;;
66118;SDS011;52912;48.564;9.302;2023-05-19T04:53:45;5.80;;;2.97;;
66118;SDS011;52912;48.564;9.302;2023-05-19T04:56:10;11.30;;;3.58;;
66118;SDS011;52912;48.564;9.302;2023-05-19T04:58:36;11.15;;;3.47;;
66118;SDS011;52912;48.564;9.302;2023-05-19T05:01:01;14.57;;;3.35;;
66118;SDS011;52912;48.564;9.302;2023-05-19T05:03:26;8.77;;;3.15;;
66118;SDS011;52912;48.564;9.302;2023-05-19T05:05:52;7.72;;;3.33;;
66118;SDS011;52912;48.564;9.302;2023-05-19T05:08:19;9.90;;;3.70;;
66118;SDS011;52912;48.564;9.302;2023-05-19T05:10:45;7.88;;;3.35;;
66118;SDS011;52912;48.564;9.302;2023-05-19T05:13:10;9.93;;;2.90;;
66118;SDS011;52912;48.564;9.302;2023-05-19T05:15:36;9.82;;;3.40;;
66118;SDS011;52912;48.564;9.302;2023-05-19T05:18:02;8.68;;;3.00;;
66118;SDS011;52912;48.564;9.302;2023-05-19T05:20:28;9.70;;;3.75;;
66118;SDS011;52912;48.564;9.302;2023-05-19T05:22:55;8.82;;;3.33;;
66118;SDS011;52912;48.564;9.302;2023-05-19T05:25:22;12.27;;;3.35;;
66118;SDS011;52912;48.564;9.302;2023-05-19T05:27:48;8.40;;;3.50;;
66118;SDS011;52912;48.564;9.302;2023-05-19T05:30:13;11.00;;;3.55;;
66118;SDS011;52912;48.564;9.302;2023-05-19T05:32:39;9.57;;;3.38;;
66118;SDS011;52912;48.564;9.302;2023-05-19T05:35:05;9.07;;;3.70;;
66118;SDS011;52912;48.564;9.302;2023-05-19T05:37:31;9.65;;;3.25;;
66118;SDS011;52912;48.564;9.302;2023-05-19T05:39:56;10.52;;;5.03;;
66118;SDS011;52912;48.564;9.302;2023-05-19T05:42:23;11.10;;;3.53;;
66118;SDS011;52912;48.564;9.302;2023-05-19T05:44:48;9.98;;;3.15;;
66118;SDS011;52912;48.564;9.302;2023-05-19T05:47:14;9.80;;;3.75;;
66118;SDS011;52912;48.564;9.302;2023-05-19T05:49:40;8.93;;;3.05;;
66118;SDS011;52912;48.564;9.302;2023-05-19T05:52:07;7.30;;;3.00;;
66118;SDS011;52912;48.564;9.302;2023-05-19T05:54:35;8.95;;;3.03;;
66118;SDS011;52912;48.564;9.302;2023-05-19T05:57:01;10.45;;;2.88;;
66118;SDS011;52912;48.564;9.302;2023-05-19T05:59:28;7.63;;;3.30;;
66118;SDS011;52912;48.564;9.302;2023-05-19T06:01:53;9.35;;;3.28;;
66118;SDS011;52912;48.564;9.302;2023-05-19T06:04:19;9.40;;;2.90;;
66118;SDS011;52912;48.564;9.302;2023-05-19T06:06:44;7.85;;;2.67;;
66118;SDS011;52912;48.564;9.302;2023-05-19T06:09:09;16.25;;;3.35;;
66118;SDS011;52912;48.564;9.302;2023-05-19T06:11:35;11.70;;;3.50;;
66118;SDS011;52912;48.564;9.302;2023-05-19T06:14:00;10.75;;;3.00;;
66118;SDS011;52912;48.564;9.302;2023-05-19T06:16:27;10.55;;;3.05;;
66118;SDS011;52912;48.564;9.302;2023-05-19T06:18:53;10.70;;;3.45;;
66118;SDS011;52912;48.564;9.302;2023-05-19T06:21:18;7.22;;;2.80;;
66118;SDS011;52912;48.564;9.302;2023-05-19T06:23:43;9.43;;;3.53;;
66118;SDS011;52912;48.564;9.302;2023-05-19T06:26:09;9.98;;;3.30;;
66118;SDS011;52912;48.564;9.302;2023-05-19T06:28:34;9.65;;;3.00;;
66118;SDS011;52912;48.564;9.302;2023-05-19T06:31:00;7.82;;;3.22;;
66118;SDS011;52912;48.564;9.302;2023-05-19T06:33:27;8.77;;;3.40;;
66118;SDS011;52912;48.564;9.302;2023-05-19T06:35:52;9.65;;;3.38;;
66118;SDS011;52912;48.564;9.302;2023-05-19T06:38:17;9.40;;;3.53;;
66118;SDS011;52912;48.564;9.302;2023-05-19T06:40:43;9.73;;;3.45;;
66118;SDS011;52912;48.564;9.302;2023-05-19T06:43:08;8.90;;;3.75;;
66118;SDS011;52912;48.564;9.302;2023-05-19T06:45:34;7.63;;;3.35;;
66118;SDS011;52912;48.564;9.302;2023-05-19T06:47:59;10.07;;;3.70;;
66118;SDS011;52912;48.564;9.302;2023-05-19T06:50:26;11.52;;;3.35;;
66118;SDS011;52912;48.564;9.302;2023-05-19T06:52:52;8.80;;;3.30;;
66118;SDS011;52912;48.564;9.302;2023-05-19T06:55:17;6.80;;;2.63;;
66118;SDS011;52912;48.564;9.302;2023-05-19T06:57:43;9.40;;;3.17;;
66118;SDS011;52912;48.564;9.302;2023-05-19T07:00:08;6.75;;;2.97;;
66118;SDS011;52912;48.564;9.302;2023-05-19T07:02:35;12.05;;;3.22;;
66118;SDS011;52912;48.564;9.302;2023-05-19T07:05:00;10.40;;;3.50;;
66118;SDS011;52912;48.564;9.302;2023-05-19T07:07:27;7.03;;;3.13;;
66118;SDS011;52912;48.564;9.302;2023-05-19T07:09:53;5.50;;;2.92;;
66118;SDS011;52912;48.564;9.302;2023-05-19T07:12:18;9.45;;;3.38;;
66118;SDS011;52912;48.564;9.302;2023-05-19T07:14:44;10.55;;;3.22;;
66118;SDS011;52912;48.564;9.302;2023-05-19T07:17:09;8.50;;;3.28;;
66118;SDS011;52912;48.564;9.302;2023-05-19T07:19:35;12.15;;;3.40;;
66118;SDS011;52912;48.564;9.302;2023-05-19T07:22:00;9.45;;;3.30;;
66118;SDS011;52912;48.564;9.302;2023-05-19T07:24:27;10.13;;;3.40;;
66118;SDS011;52912;48.564;9.302;2023-05-19T07:26:52;9.15;;;3.60;;
66118;SDS011;52912;48.564;9.302;2023-05-19T07:29:18;11.00;;;3.53;;
66118;SDS011;52912;48.564;9.302;2023-05-19T07:31:43;9.13;;;3.45;;
66118;SDS011;52912;48.564;9.302;2023-05-19T07:34:09;6.47;;;3.10;;
66118;SDS011;52912;48.564;9.302;2023-05-19T07:36:34;9.13;;;3.10;;
66118;SDS011;52912;48.564;9.302;2023-05-19T07:39:00;6.88;;;3.38;;
66118;SDS011;52912;48.564;9.302;2023-05-19T07:41:26;7.97;;;2.97;;
66118;SDS011;52912;48.564;9.302;2023-05-19T07:43:52;8.43;;;3.35;;
66118;SDS011;52912;48.564;9.302;2023-05-19T07:46:17;7.13;;;3.25;;
66118;SDS011;52912;48.564;9.302;2023-05-19T07:48:43;7.57;;;3.20;;
66118;SDS011;52912;48.564;9.302;2023-05-19T07:51:08;10.73;;;3.50;;
66118;SDS011;52912;48.564;9.302;2023-05-19T07:53:34;9.18;;;4.25;;
66118;SDS011;52912;48.564;9.302;2023-05-19T07:56:00;9.68;;;3.72;;
66118;SDS011;52912;48.564;9.302;2023-05-19T07:58:27;9.98;;;3.85;;
66118;SDS011;52912;48.564;9.302;2023-05-19T08:00:55;9.85;;;3.65;;
66118;SDS011;52912;48.564;9.302;2023-05-19T08:03:21;8.30;;;3.65;;
66118;SDS011;52912;48.564;9.302;2023-05-19T08:05:46;10.13;;;3.78;;
66118;SDS011;52912;48.564;9.302;2023-05-19T08:08:12;8.98;;;3.42;;
66118;SDS011;52912;48.564;9.302;2023-05-19T08:10:37;8.55;;;3.47;;
66118;SDS011;52912;48.564;9.302;2023-05-19T08:13:02;11.35;;;3.75;;
66118;SDS011;52912;48.564;9.302;2023-05-19T08:15:29;11.00;;;3.90;;
66118;SDS011;52912;48.564;9.302;2023-05-19T08:17:55;7.55;;;3.63;;
66118;SDS011;52912;48.564;9.302;2023-05-19T08:20:20;10.55;;;3.67;;
66118;SDS011;52912;48.564;9.302;2023-05-19T08:22:46;10.27;;;3.60;;
66118;SDS011;52912;48.564;9.302;2023-05-19T08:25:11;9.38;;;3.30;;
66118;SDS011;52912;48.564;9.302;2023-05-19T08:27:36;8.45;;;3.65;;
66118;SDS011;52912;48.564;9.302;2023-05-19T08:30:02;10.52;;;3.80;;
66118;SDS011;52912;48.564;9.302;2023-05-19T08:32:29;6.93;;;3.75;;
66118;SDS011;52912;48.564;9.302;2023-05-19T08:34:55;10.68;;;3.50;;
66118;SDS011;52912;48.564;9.302;2023-05-19T08:37:20;9.77;;;4.13;;
66118;SDS011;52912;48.564;9.302;2023-05-19T08:39:45;9.63;;;3.38;;
66118;SDS011;52912;48.564;9.302;2023-05-19T08:42:11;8.77;;;3.08;;
66118;SDS011;52912;48.564;9.302;2023-05-19T08:44:36;7.47;;;3.40;;
66118;SDS011;52912;48.564;9.302;2023-05-19T08:47:02;8.43;;;3.55;;
66118;SDS011;52912;48.564;9.302;2023-05-19T08:49:31;9.60;;;3.10;;
66118;SDS011;52912;48.564;9.302;2023-05-19T08:51:59;10.50;;;3.97;;
66118;SDS011;52912;48.564;9.302;2023-05-19T08:54:31;9.70;;;3.97;;
66118;SDS011;52912;48.564;9.302;2023-05-19T08:57:02;9.18;;;3.85;;
66118;SDS011;52912;48.564;9.302;2023-05-19T08:59:28;8.50;;;3.40;;
66118;SDS011;52912;48.564;9.302;2023-05-19T09:01:54;7.65;;;3.55;;
66118;SDS011;52912;48.564;9.302;2023-05-19T09:04:20;10.40;;;3.78;;
66118;SDS011;52912;48.564;9.302;2023-05-19T09:06:46;10.55;;;3.85;;
66118;SDS011;52912;48.564;9.302;2023-05-19T09:09:12;11.18;;;3.80;;
66118;SDS011;52912;48.564;9.302;2023-05-19T09:11:37;12.63;;;4.07;;
66118;SDS011;52912;48.564;9.302;2023-05-19T09:14:03;8.32;;;3.50;;
66118;SDS011;52912;48.564;9.302;2023-05-19T09:16:28;12.02;;;3.80;;
66118;SDS011;52912;48.564;9.302;2023-05-19T09:18:54;9.25;;;3.47;;
66118;SDS011;52912;48.564;9.302;2023-05-19T09:21:25;8.55;;;3.60;;
66118;SDS011;52912;48.564;9.302;2023-05-19T09:23:52;8.88;;;3.63;;
66118;SDS011;52912;48.564;9.302;2023-05-19T09:26:18;8.68;;;3.30;;
66118;SDS011;52912;48.564;9.302;2023-05-19T09:28:43;10.65;;;3.20;;
66118;SDS011;52912;48.564;9.302;2023-05-19T09:31:11;8.35;;;3.15;;
66118;SDS011;52912;48.564;9.302;2023-05-19T09:33:37;6.38;;;3.25;;
66118;SDS011;52912;48.564;9.302;2023-05-19T09:36:04;9.95;;;3.42;;
66118;SDS011;52912;48.564;9.302;2023-05-19T09:38:30;9.65;;;3.38;;
66118;SDS011;52912;48.564;9.302;2023-05-19T09:40:58;11.60;;;3.78;;
66118;SDS011;52912;48.564;9.302;2023-05-19T09:43:25;11.07;;;3.97;;
66118;SDS011;52912;48.564;9.302;2023-05-19T09:45:53;10.50;;;3.92;;
66118;SDS011;52912;48.564;9.302;2023-05-19T09:48:19;8.13;;;3.20;;
66118;SDS011;52912;48.564;9.302;2023-05-19T09:50:44;7.38;;;3.33;;
66118;SDS011;52912;48.564;9.302;2023-05-19T09:53:12;7.38;;;3.50;;
66118;SDS011;52912;48.564;9.302;2023-05-19T09:55:38;8.68;;;3.38;;
66118;SDS011;52912;48.564;9.302;2023-05-19T09:58:05;7.03;;;3.20;;
66118;SDS011;52912;48.564;9.302;2023-05-19T10:00:31;7.72;;;3.72;;
66118;SDS011;52912;48.564;9.302;2023-05-19T10:02:57;9.52;;;3.50;;
66118;SDS011;52912;48.564;9.302;2023-05-19T10:05:24;9.20;;;3.63;;
66118;SDS011;52912;48.564;9.302;2023-05-19T10:07:51;10.60;;;3.35;;
66118;SDS011;52912;48.564;9.302;2023-05-19T10:10:17;8.10;;;3.55;;
66118;SDS011;52912;48.564;9.302;2023-05-19T10:12:43;7.68;;;3.13;;
66118;SDS011;52912;48.564;9.302;2023-05-19T10:15:11;8.88;;;3.45;;
66118;SDS011;52912;48.564;9.302;2023-05-19T10:17:38;12.70;;;3.88;;
66118;SDS011;52912;48.564;9.302;2023-05-19T10:20:05;19.13;;;3.80;;
66118;SDS011;52912;48.564;9.302;2023-05-19T10:22:32;9.27;;;3.75;;
66118;SDS011;52912;48.564;9.302;2023-05-19T10:24:58;8.77;;;3.28;;
66118;SDS011;52912;48.564;9.302;2023-05-19T10:27:23;9.05;;;3.50;;
66118;SDS011;52912;48.564;9.302;2023-05-19T10:29:51;8.30;;;3.85;;
66118;SDS011;52912;48.564;9.302;2023-05-19T10:32:23;8.40;;;3.47;;
66118;SDS011;52912;48.564;9.302;2023-05-19T10:35:17;6.93;;;3.50;;
66118;SDS011;52912;48.564;9.302;2023-05-19T10:37:53;12.63;;;3.55;;
66118;SDS011;52912;48.564;9.302;2023-05-19T10:40:25;9.15;;;3.28;;
66118;SDS011;52912;48.564;9.302;2023-05-19T10:42:55;11.57;;;3.72;;
66118;SDS011;52912;48.564;9.302;2023-05-19T10:45:29;8.23;;;3.75;;
66118;SDS011;52912;48.564;9.302;2023-05-19T10:50:25;7.40;;;2.92;;
66118;SDS011;52912;48.564;9.302;2023-05-19T10:52:51;7.63;;;3.40;;
66118;SDS011;52912;48.564;9.302;2023-05-19T10:55:17;5.07;;;2.70;;
66118;SDS011;52912;48.564;9.302;2023-05-19T10:58:09;7.63;;;3.47;;
66118;SDS011;52912;48.564;9.302;2023-05-19T11:00:35;5.97;;;2.80;;
66118;SDS011;52912;48.564;9.302;2023-05-19T11:03:14;9.87;;;3.40;;
66118;SDS011;52912;48.564;9.302;2023-05-19T11:05:40;5.82;;;3.10;;
66118;SDS011;52912;48.564;9.302;2023-05-19T11:08:05;10.25;;;3.45;;
66118;SDS011;52912;48.564;9.302;2023-05-19T11:10:31;9.10;;;3.40;;
66118;SDS011;52912;48.564;9.302;2023-05-19T11:12:56;7.90;;;3.50;;
66118;SDS011;52912;48.564;9.302;2023-05-19T11:15:22;6.97;;;3.08;;
66118;SDS011;52912;48.564;9.302;2023-05-19T11:17:50;8.32;;;3.22;;
66118;SDS011;52912;48.564;9.302;2023-05-19T11:20:21;7.45;;;3.15;;
66118;SDS011;52912;48.564;9.302;2023-05-19T11:23:00;12.32;;;3.80;;
66118;SDS011;52912;48.564;9.302;2023-05-19T11:25:39;8.88;;;3.33;;
66118;SDS011;52912;48.564;9.302;2023-05-19T11:28:06;13.90;;;4.28;;
66118;SDS011;52912;48.564;9.302;2023-05-19T11:30:32;9.13;;;3.13;;
66118;SDS011;52912;48.564;9.302;2023-05-19T11:32:58;7.57;;;3.33;;
66118;SDS011;52912;48.564;9.302;2023-05-19T11:35:25;5.90;;;3.00;;
66118;SDS011;52912;48.564;9.302;2023-05-19T11:37:55;8.02;;;3.08;;
66118;SDS011;52912;48.564;9.302;2023-05-19T11:40:21;7.68;;;3.33;;
66118;SDS011;52912;48.564;9.302;2023-05-19T11:42:47;9.63;;;3.40;;
66118;SDS011;52912;48.564;9.302;2023-05-19T11:45:12;10.55;;;3.25;;
66118;SDS011;52912;48.564;9.302;2023-05-19T11:47:38;8.15;;;3.38;;
66118;SDS011;52912;48.564;9.302;2023-05-19T11:50:04;9.20;;;3.20;;
66118;SDS011;52912;48.564;9.302;2023-05-19T11:52:31;5.90;;;2.80;;
66118;SDS011;52912;48.564;9.302;2023-05-19T11:54:58;9.25;;;3.40;;
66118;SDS011;52912;48.564;9.302;2023-05-19T11:57:24;5.28;;;2.65;;
66118;SDS011;52912;48.564;9.302;2023-05-19T11:59:50;10.18;;;3.33;;
66118;SDS011;52912;48.564;9.302;2023-05-19T12:02:16;8.93;;;3.50;;
66118;SDS011;52912;48.564;9.302;2023-05-19T12:04:43;4.53;;;2.92;;
66118;SDS011;52912;48.564;9.302;2023-05-19T12:07:09;7.20;;;3.25;;
66118;SDS011;52912;48.564;9.302;2023-05-19T12:09:36;8.27;;;3.30;;
66118;SDS011;52912;48.564;9.302;2023-05-19T12:12:02;5.93;;;3.22;;
66118;SDS011;52912;48.564;9.302;2023-05-19T12:16:57;5.72;;;3.10;;
66118;SDS011;52912;48.564;9.302;2023-05-19T12:19:24;6.78;;;3.05;;
66118;SDS011;52912;48.564;9.302;2023-05-19T12:21:50;8.00;;;3.30;;
66118;SDS011;52912;48.564;9.302;2023-05-19T12:24:16;9.25;;;3.08;;
66118;SDS011;52912;48.564;9.302;2023-05-19T12:26:43;6.10;;;2.95;;
66118;SDS011;52912;48.564;9.302;2023-05-19T12:29:09;10.05;;;3.20;;
66118;SDS011;52912;48.564;9.302;2023-05-19T12:31:37;9.07;;;3.20;;
66118;SDS011;52912;48.564;9.302;2023-05-19T12:34:02;5.97;;;3.30;;
66118;SDS011;52912;48.564;9.302;2023-05-19T12:36:28;7.40;;;3.42;;
66118;SDS011;52912;48.564;9.302;2023-05-19T12:38:56;9.65;;;3.53;;
66118;SDS011;52912;48.564;9.302;2023-05-19T12:41:22;7.43;;;3.45;;
66118;SDS011;52912;48.564;9.302;2023-05-19T12:43:50;7.03;;;2.97;;
66118;SDS011;52912;48.564;9.302;2023-05-19T12:46:18;6.18;;;3.03;;
66118;SDS011;52912;48.564;9.302;2023-05-19T12:48:46;7.10;;;3.33;;
66118;SDS011;52912;48.564;9.302;2023-05-19T12:51:16;6.35;;;3.13;;
66118;SDS011;52912;48.564;9.302;2023-05-19T12:53:42;5.70;;;3.30;;
66118;SDS011;52912;48.564;9.302;2023-05-19T12:56:11;7.03;;;3.30;;
66118;SDS011;52912;48.564;9.302;2023-05-19T12:58:37;7.55;;;3.33;;
66118;SDS011;52912;48.564;9.302;2023-05-19T13:01:13;9.68;;;3.78;;
66118;SDS011;52912;48.564;9.302;2023-05-19T13:03:40;9.73;;;3.63;;
66118;SDS011;52912;48.564;9.302;2023-05-19T13:06:05;6.20;;;3.50;;
66118;SDS011;52912;48.564;9.302;2023-05-19T13:08:45;6.45;;;3.60;;
66118;SDS011;52912;48.564;9.302;2023-05-19T13:11:17;8.88;;;3.30;;
66118;SDS011;52912;48.564;9.302;2023-05-19T13:13:42;9.57;;;4.07;;
66118;SDS011;52912;48.564;9.302;2023-05-19T13:16:14;9.95;;;3.47;;
66118;SDS011;52912;48.564;9.302;2023-05-19T13:18:40;8.82;;;3.50;;
66118;SDS011;52912;48.564;9.302;2023-05-19T13:21:05;8.82;;;3.25;;
66118;SDS011;52912;48.564;9.302;2023-05-19T13:23:31;8.07;;;3.55;;
66118;SDS011;52912;48.564;9.302;2023-05-19T13:25:56;6.82;;;3.30;;
66118;SDS011;52912;48.564;9.302;2023-05-19T13:28:22;8.18;;;3.35;;
66118;SDS011;52912;48.564;9.302;2023-05-19T13:30:47;9.55;;;3.92;;
66118;SDS011;52912;48.564;9.302;2023-05-19T13:33:14;8.77;;;3.65;;
66118;SDS011;52912;48.564;9.302;2023-05-19T13:35:40;8.27;;;3.47;;
66118;SDS011;52912;48.564;9.302;2023-05-19T13:38:06;9.65;;;3.70;;
66118;SDS011;52912;48.564;9.302;2023-05-19T13:40:41;7.03;;;3.33;;
66118;SDS011;52912;48.564;9.302;2023-05-19T13:43:10;12.02;;;3.92;;
66118;SDS011;52912;48.564;9.302;2023-05-19T13:45:36;6.57;;;3.20;;
66118;SDS011;52912;48.564;9.302;2023-05-19T13:48:01;6.82;;;3.80;;
66118;SDS011;52912;48.564;9.302;2023-05-19T13:50:28;9.18;;;3.33;;
66118;SDS011;52912;48.564;9.302;2023-05-19T13:53:07;13.43;;;4.53;;
66118;SDS011;52912;48.564;9.302;2023-05-19T13:55:36;8.98;;;4.13;;
66118;SDS011;52912;48.564;9.302;2023-05-19T13:58:01;7.65;;;3.75;;
66118;SDS011;52912;48.564;9.302;2023-05-19T14:00:27;11.75;;;4.00;;
66118;SDS011;52912;48.564;9.302;2023-05-19T14:03:10;9.93;;;5.38;;
66118;SDS011;52912;48.564;9.302;2023-05-19T14:15:05;10.95;;;3.95;;
66118;SDS011;52912;48.564;9.302;2023-05-19T14:20:24;7.15;;;3.90;;
66118;SDS011;52912;48.564;9.302;2023-05-19T15:19:18;8.48;;;3.97;;
66118;SDS011;52912;48.564;9.302;2023-05-19T15:21:43;8.43;;;3.60;;
66118;SDS011;52912;48.564;9.302;2023-05-19T15:24:09;7.20;;;3.90;;
66118;SDS011;52912;48.564;9.302;2023-05-19T15:26:34;8.77;;;3.72;;
66118;SDS011;52912;48.564;9.302;2023-05-19T15:29:00;8.32;;;3.65;;
66118;SDS011;52912;48.564;9.302;2023-05-19T15:31:26;7.18;;;3.65;;
66118;SDS011;52912;48.564;9.302;2023-05-19T15:33:51;8.73;;;3.90;;
66118;SDS011;52912;48.564;9.302;2023-05-19T15:36:18;7.05;;;3.53;;
66118;SDS011;52912;48.564;9.302;2023-05-19T15:38:43;9.13;;;4.47;;
66118;SDS011;52912;48.564;9.302;2023-05-19T15:41:09;8.80;;;4.07;;
66118;SDS011;52912;48.564;9.302;2023-05-19T15:43:34;9.82;;;4.10;;
66118;SDS011;52912;48.564;9.302;2023-05-19T15:46:00;8.85;;;4.28;;
66118;SDS011;52912;48.564;9.302;2023-05-19T15:48:26;8.27;;;4.32;;
66118;SDS011;52912;48.564;9.302;2023-05-19T15:50:51;8.98;;;4.20;;
66118;SDS011;52912;48.564;9.302;2023-05-19T15:53:18;8.73;;;4.03;;
66118;SDS011;52912;48.564;9.302;2023-05-19T15:55:43;12.25;;;4.50;;
66118;SDS011;52912;48.564;9.302;2023-05-19T15:58:09;9.15;;;4.00;;
66118;SDS011;52912;48.564;9.302;2023-05-19T16:00:34;9.63;;;3.88;;
66118;SDS011;52912;48.564;9.302;2023-05-19T16:03:00;9.82;;;4.05;;
66118;SDS011;52912;48.564;9.302;2023-05-19T16:05:25;8.20;;;3.92;;